createdAt,value
2016-10-10T00:29:23.971Z,0
2016-10-10T01:29:21.569Z,0
2016-10-10T02:29:09.646Z,0
2016-10-10T02:30:19.991Z,0
2016-10-10T02:31:30.344Z,0
2016-10-10T02:32:40.698Z,0
2016-10-10T02:33:51.036Z,0
2016-10-10T02:35:01.392Z,0
2016-10-10T02:36:42.013Z,0
2016-10-10T03:29:18.657Z,0
2016-10-10T03:30:29.006Z,0
2016-10-10T03:34:00.050Z,0
2016-10-10T03:35:10.400Z,0
2016-10-10T03:36:20.751Z,0
2016-10-10T03:37:31.104Z,0
2016-10-10T03:38:41.440Z,0
2016-10-10T03:39:51.790Z,0
2016-10-10T03:41:02.149Z,0
2016-10-10T04:29:27.028Z,0
2016-10-10T04:30:37.365Z,0
2016-10-10T04:31:47.727Z,0
2016-10-10T04:32:58.043Z,0
2016-10-10T04:34:08.394Z,0
2016-10-10T04:35:18.743Z,0
2016-10-10T04:36:29.094Z,0
2016-10-10T04:37:39.454Z,0
2016-10-10T04:38:49.805Z,0
2016-10-10T04:40:00.157Z,0
2016-10-10T04:41:10.510Z,0
2016-10-10T04:42:20.865Z,0
2016-10-10T04:43:31.217Z,0
2016-10-10T04:44:41.570Z,0
2016-10-10T04:45:51.924Z,0
2016-10-10T04:47:02.267Z,0
2016-10-10T04:48:12.619Z,0
2016-10-10T06:28:54.031Z,0
2016-10-10T06:30:04.344Z,0
2016-10-10T06:31:14.685Z,0
2016-10-10T07:28:49.755Z,0
2016-10-10T07:30:00.102Z,0
2016-10-10T07:31:10.449Z,0
2016-10-10T07:32:20.798Z,0
2016-10-10T07:33:31.144Z,0
2016-10-10T08:28:41.854Z,0
2016-10-10T08:29:52.189Z,0
2016-10-10T08:31:02.542Z,0
2016-10-10T08:32:12.888Z,0
2016-10-10T09:28:39.179Z,0
2016-10-10T09:29:49.514Z,0
2016-10-10T09:30:59.861Z,0
2016-10-10T09:32:10.208Z,0
2016-10-10T09:33:20.563Z,0
2016-10-10T09:34:30.932Z,0
2016-10-10T09:35:41.265Z,0
2016-10-10T09:36:51.616Z,0
2016-10-10T09:39:12.330Z,0
2016-10-10T09:40:22.674Z,0
2016-10-10T09:41:33.028Z,0
2016-10-10T09:42:43.371Z,0
2016-10-10T09:43:53.733Z,0
2016-10-10T09:45:04.089Z,0
2016-10-10T09:46:14.443Z,0
2016-10-10T10:28:41.391Z,0
2016-10-10T11:28:22.430Z,0
2016-10-10T11:29:32.942Z,0
2016-10-10T11:30:43.137Z,0
2016-10-10T12:28:46.767Z,0
2016-10-10T12:29:57.116Z,0
2016-10-10T13:28:51.151Z,0
2016-10-10T13:30:01.498Z,0
2016-10-10T13:31:11.846Z,0
2016-10-10T13:32:22.197Z,0
2016-10-10T13:33:32.547Z,0
2016-10-10T13:34:42.935Z,0
2016-10-10T13:35:33.146Z,0
2016-10-10T13:36:43.472Z,0
2016-10-10T13:37:53.825Z,0
2016-10-10T13:39:04.182Z,0
2016-10-10T13:40:14.518Z,0
2016-10-10T13:41:24.878Z,0
2016-10-10T14:28:46.315Z,0
2016-10-10T14:29:56.659Z,0
2016-10-10T14:31:07.057Z,0
2016-10-10T14:32:17.350Z,0
2016-10-10T15:28:40.786Z,0
2016-10-10T15:29:51.124Z,0
2016-10-10T15:31:01.474Z,0
2016-10-10T15:32:11.818Z,0
2016-10-10T16:28:41.905Z,0
2016-10-10T16:29:52.233Z,0
2016-10-10T16:31:02.584Z,0
2016-10-10T16:32:12.942Z,0
2016-10-10T16:33:23.282Z,0
2016-10-10T16:34:33.632Z,0
2016-10-10T16:35:43.984Z,0
2016-10-10T16:36:54.341Z,0
2016-10-10T16:38:04.684Z,0
2016-10-10T16:39:15.037Z,0
2016-10-10T16:40:25.387Z,0
2016-10-10T16:41:35.748Z,0
2016-10-10T17:28:38.322Z,999.06
2016-10-10T17:29:48.720Z,999.06
2016-10-10T17:30:59.117Z,999.08
2016-10-10T17:32:09.526Z,999.08
2016-10-10T17:33:19.890Z,999.07
2016-10-10T17:34:30.280Z,999.09
2016-10-10T17:35:40.680Z,999.1
2016-10-10T17:36:51.078Z,999.14
2016-10-10T18:29:03.893Z,999.11
2016-10-10T19:29:13.173Z,999.17
2016-10-10T19:30:23.575Z,999.1
2016-10-10T20:29:14.053Z,998.96
2016-10-10T20:30:24.179Z,998.99
2016-10-10T20:31:34.720Z,998.99
2016-10-10T20:32:45.114Z,998.96
2016-10-10T21:29:16.113Z,998.82
2016-10-10T21:30:26.527Z,998.81
2016-10-10T22:30:19.109Z,0
2016-10-10T22:31:29.471Z,0
2016-10-10T22:32:39.814Z,0
2016-10-10T22:33:50.162Z,0
2016-10-10T22:36:10.884Z,0
2016-10-10T23:28:58.183Z,998.37
2016-10-10T23:30:08.572Z,998.36
2016-10-10T23:31:18.975Z,998.34
2016-10-10T23:32:29.368Z,998.34
2016-10-10T23:33:39.703Z,998.34
2016-10-10T23:34:49.962Z,998.34
2016-10-10T23:36:00.311Z,998.34
2016-10-10T23:37:10.659Z,998.34
2016-10-10T23:38:21.013Z,998.34
2016-10-10T23:39:31.362Z,998.34
2016-10-10T23:40:41.699Z,998.34
